Time;durP1;ratioP1;P1;durP2;ratioP2;P2;SDS_P1;SDS_P2;PMS_P1;PMS_P2;Temp;Humidity;BMP_temperature;BMP_pressure;BME280_temperature;BME280_humidity;BME280_pressure;Samples;Min_cycle;Max_cycle;Signal;HPM_P1;HPM_P2
2022/05/24 00:04:54;;;;;;;2.90;1.90;;;18.10;99.90;;;;;;10468309;28;20229;-71
2022/05/24 00:09:55;;;;;;;2.63;2.10;;;18.00;99.90;;;;;;10467524;28;20684;-69
2022/05/24 00:20:15;;;;;;;5.90;2.23;;;18.10;99.90;;;;;;10471205;28;20582;-70
2022/05/24 00:25:16;;;;;;;3.77;1.90;;;18.10;99.90;;;;;;10469322;28;20281;-70
2022/05/24 00:30:18;;;;;;;2.10;1.90;;;18.10;99.90;;;;;;10467094;28;20729;-71
2022/05/24 00:35:19;;;;;;;4.03;2.40;;;18.10;99.90;;;;;;10471350;28;20224;-70
2022/05/24 00:40:51;;;;;;;2.80;2.60;;;18.10;99.90;;;;;;10469403;28;20218;-71
2022/05/24 00:45:56;;;;;;;3.57;2.30;;;18.10;99.90;;;;;;10452432;28;20252;-71
2022/05/24 00:50:58;;;;;;;2.70;2.50;;;18.10;99.90;;;;;;10470251;28;20244;-70
2022/05/24 00:56:06;;;;;;;2.77;2.57;;;18.00;99.90;;;;;;10467963;28;20252;-69
2022/05/24 01:01:29;;;;;;;4.40;2.80;;;18.00;99.90;;;;;;10474183;28;20225;-70
2022/05/24 01:06:30;;;;;;;3.23;2.93;;;18.00;99.90;;;;;;10467801;28;20217;-70
2022/05/24 01:11:34;;;;;;;4.80;3.30;;;17.90;99.90;;;;;;10472708;28;20681;-70
2022/05/24 01:16:35;;;;;;;3.87;3.20;;;17.80;99.90;;;;;;10466730;28;20221;-70
2022/05/24 01:21:35;;;;;;;4.60;2.60;;;17.80;99.90;;;;;;10465998;28;20228;-70
2022/05/24 01:26:45;;;;;;;4.40;3.50;;;17.70;99.90;;;;;;10465580;28;20218;-70
2022/05/24 01:37:06;;;;;;;4.37;2.63;;;17.60;99.90;;;;;;10469866;28;20237;-70
2022/05/24 01:42:07;;;;;;;5.07;2.60;;;17.60;99.90;;;;;;10464406;28;20253;-70
2022/05/24 01:47:08;;;;;;;4.07;2.73;;;17.60;99.90;;;;;;10468012;28;20715;-70
2022/05/24 01:52:21;;;;;;;3.50;3.20;;;17.60;99.90;;;;;;10469189;28;20245;-70
2022/05/24 01:57:28;;;;;;;3.63;3.03;;;17.60;99.90;;;;;;10471237;28;20234;-69
2022/05/24 02:02:28;;;;;;;5.43;3.40;;;17.50;99.90;;;;;;10464923;28;20232;-70
2022/05/24 02:07:29;;;;;;;3.53;3.23;;;17.40;99.90;;;;;;10473975;28;20594;-70
2022/05/24 02:12:51;;;;;;;4.07;3.37;;;17.20;99.90;;;;;;10478991;28;20265;-70
2022/05/24 02:18:00;;;;;;;5.33;3.30;;;17.00;99.90;;;;;;10451426;28;20231;-70
2022/05/24 02:23:00;;;;;;;5.03;3.27;;;16.90;99.90;;;;;;10480012;28;20278;-70
2022/05/24 02:28:02;;;;;;;4.60;3.80;;;16.80;99.90;;;;;;10477044;28;20235;-70
2022/05/24 02:33:02;;;;;;;4.87;3.50;;;16.80;99.90;;;;;;10474265;28;20262;-70
2022/05/24 02:38:04;;;;;;;5.63;3.80;;;16.70;99.90;;;;;;10473381;28;20252;-69
2022/05/24 02:43:05;;;;;;;4.00;3.60;;;16.70;99.90;;;;;;10476233;28;20218;-69
2022/05/24 02:48:06;;;;;;;4.43;3.27;;;16.70;99.90;;;;;;10470563;28;20226;-70
2022/05/24 02:53:07;;;;;;;6.27;3.63;;;16.60;99.90;;;;;;10473418;28;20229;-69
2022/05/24 02:58:08;;;;;;;4.60;4.00;;;16.60;99.90;;;;;;10474504;28;20740;-70
2022/05/24 03:03:09;;;;;;;8.73;4.10;;;16.60;99.90;;;;;;10474003;28;20221;-70
2022/05/24 03:19:05;;;;;;;4.57;3.93;;;16.60;99.90;;;;;;10414177;28;20274;-69
2022/05/24 03:24:06;;;;;;;3.73;3.30;;;16.70;99.90;;;;;;10468467;28;20221;-70
2022/05/24 03:29:07;;;;;;;5.37;4.47;;;16.80;99.90;;;;;;10473689;28;20240;-70
2022/05/24 03:34:10;;;;;;;5.47;4.30;;;16.90;99.90;;;;;;10474465;28;20215;-70
2022/05/24 03:39:11;;;;;;;5.07;4.17;;;17.00;99.90;;;;;;10473713;28;20241;-71
2022/05/24 03:44:12;;;;;;;4.37;3.80;;;17.00;99.90;;;;;;10472022;28;20237;-70
2022/05/24 03:49:15;;;;;;;7.57;4.07;;;17.00;99.90;;;;;;10472812;28;20251;-70
2022/05/24 03:54:16;;;;;;;4.63;3.50;;;17.10;99.90;;;;;;10471763;28;20219;-69
2022/05/24 03:59:17;;;;;;;8.30;3.80;;;17.00;99.90;;;;;;10473706;28;20237;-69
2022/05/24 04:04:18;;;;;;;4.20;3.80;;;17.10;99.90;;;;;;10462559;28;20259;-68
2022/05/24 04:09:18;;;;;;;4.30;3.90;;;17.10;99.90;;;;;;10463629;28;20594;-68
2022/05/24 04:14:19;;;;;;;4.93;3.53;;;17.10;99.90;;;;;;10470168;28;20230;-69
2022/05/24 04:19:19;;;;;;;4.37;3.60;;;17.20;99.90;;;;;;10467506;28;20229;-68
2022/05/24 04:24:20;;;;;;;4.13;3.70;;;17.20;99.90;;;;;;10471201;28;20684;-68
2022/05/24 04:29:20;;;;;;;6.17;3.80;;;17.20;99.90;;;;;;10468717;28;20222;-69
2022/05/24 04:34:21;;;;;;;5.53;4.07;;;17.20;99.90;;;;;;10470220;28;20260;-68
2022/05/24 04:39:22;;;;;;;5.17;4.57;;;17.30;99.90;;;;;;10469152;28;20232;-69
2022/05/24 04:44:22;;;;;;;6.77;4.40;;;17.30;99.90;;;;;;10466484;28;20301;-69
2022/05/24 04:49:23;;;;;;;9.20;4.53;;;17.40;99.90;;;;;;10463421;28;20213;-68
2022/05/24 04:54:24;;;;;;;6.57;4.10;;;17.50;99.90;;;;;;10465949;28;20595;-70
2022/05/24 04:59:25;;;;;;;5.70;3.90;;;17.60;99.90;;;;;;10469774;28;20225;-69
2022/05/24 05:04:26;;;;;;;7.43;4.50;;;17.70;99.90;;;;;;10467969;28;20752;-68
2022/05/24 05:09:34;;;;;;;4.47;4.07;;;17.80;99.90;;;;;;10471594;28;20231;-69
2022/05/24 05:14:36;;;;;;;6.53;3.93;;;17.80;99.90;;;;;;10466193;28;20221;-70
2022/05/24 05:19:37;;;;;;;4.93;4.07;;;17.80;99.90;;;;;;10467232;28;20222;-71
2022/05/24 05:24:38;;;;;;;4.90;4.23;;;17.70;99.90;;;;;;10473020;28;20271;-71
2022/05/24 05:35:02;;;;;;;5.43;3.60;;;17.90;99.90;;;;;;10460570;28;20663;-70
2022/05/24 05:40:05;;;;;;;4.97;3.10;;;18.10;99.90;;;;;;10470492;28;20221;-70
2022/05/24 05:45:06;;;;;;;5.50;3.07;;;18.10;99.90;;;;;;10480816;28;20279;-71
2022/05/24 05:50:08;;;;;;;4.53;2.83;;;18.00;99.90;;;;;;10494086;28;20192;-71
2022/05/24 05:55:08;;;;;;;5.00;2.93;;;18.00;99.90;;;;;;10477687;28;20175;-71
2022/05/24 06:00:11;;;;;;;7.07;2.57;;;18.00;99.90;;;;;;10468355;28;20177;-70
2022/05/24 06:05:12;;;;;;;4.17;2.17;;;17.90;99.90;;;;;;10473879;28;20191;-70
2022/05/24 06:10:13;;;;;;;4.23;2.73;;;17.80;99.90;;;;;;10474510;28;20185;-70
2022/05/24 06:15:14;;;;;;;3.70;2.67;;;17.70;99.90;;;;;;10475833;28;20738;-70
2022/05/24 06:20:17;;;;;;;2.77;1.70;;;17.60;99.90;;;;;;10462836;28;20190;-71
2022/05/24 06:25:17;;;;;;;3.33;1.87;;;17.80;99.90;;;;;;10472535;28;20202;-70
2022/05/24 06:30:20;;;;;;;3.40;1.40;;;18.20;99.90;;;;;;10469777;28;20185;-71
2022/05/24 06:35:21;;;;;;;2.33;1.30;;;18.30;99.90;;;;;;10476413;28;20205;-70
2022/05/24 06:40:22;;;;;;;1.47;1.37;;;18.50;99.90;;;;;;10473286;28;20562;-71
2022/05/24 06:45:22;;;;;;;1.33;1.00;;;18.80;99.90;;;;;;10471158;28;20198;-70
2022/05/24 06:50:24;;;;;;;1.70;1.03;;;18.80;99.90;;;;;;10475143;28;20198;-70
2022/05/24 06:55:25;;;;;;;1.80;0.90;;;18.60;99.90;;;;;;10478344;28;20746;-70
2022/05/24 07:05:45;;;;;;;1.27;0.37;;;18.30;99.90;;;;;;10461945;28;20218;-71
2022/05/24 07:10:45;;;;;;;1.03;0.40;;;18.40;99.90;;;;;;10477725;28;20329;-71
2022/05/24 07:15:48;;;;;;;2.17;0.60;;;18.40;99.90;;;;;;10470877;28;20329;-72
2022/05/24 07:20:51;;;;;;;0.67;0.33;;;18.30;99.90;;;;;;10476856;28;20604;-71
2022/05/24 07:25:53;;;;;;;0.50;0.50;;;18.40;99.90;;;;;;10469592;28;20307;-71
2022/05/24 07:30:54;;;;;;;1.07;0.97;;;18.50;99.90;;;;;;10469653;28;20226;-71
2022/05/24 07:35:54;;;;;;;1.53;0.70;;;18.60;99.90;;;;;;10471499;28;20230;-71
2022/05/24 07:46:16;;;;;;;0.50;0.50;;;19.40;99.90;;;;;;10465273;28;20749;-71
2022/05/24 07:51:16;;;;;;;1.23;0.30;;;20.20;99.90;;;;;;10472440;28;20302;-71
2022/05/24 07:56:19;;;;;;;1.20;0.67;;;20.40;99.90;;;;;;10469045;28;20249;-71
2022/05/24 08:01:19;;;;;;;0.50;0.40;;;19.80;99.90;;;;;;10462971;28;20306;-70
2022/05/24 08:06:20;;;;;;;2.87;0.70;;;19.40;99.90;;;;;;10469193;28;20223;-71
2022/05/24 08:11:21;;;;;;;1.63;0.93;;;18.90;99.90;;;;;;10466897;28;20219;-71
2022/05/24 08:16:21;;;;;;;2.33;0.30;;;18.50;99.90;;;;;;10477031;28;20254;-71
2022/05/24 08:21:22;;;;;;;0.40;0.40;;;18.20;99.90;;;;;;10472551;28;20223;-71
2022/05/24 08:26:24;;;;;;;0.87;0.50;;;18.60;99.90;;;;;;10468608;28;20232;-71
2022/05/24 08:31:25;;;;;;;0.63;0.50;;;19.30;99.90;;;;;;10466475;28;20218;-71
2022/05/24 08:36:26;;;;;;;1.93;0.40;;;21.50;99.90;;;;;;10465316;28;20215;-71
2022/05/24 08:41:31;;;;;;;0.87;0.27;;;24.70;99.90;;;;;;10466284;28;21039;-71
2022/05/24 08:52:00;;;;;;;2.03;0.43;;;27.90;59.00;;;;;;10461558;28;20254;-71
2022/05/24 08:57:09;;;;;;;2.17;0.50;;;26.00;64.50;;;;;;10470875;28;20234;-71
2022/05/24 09:02:11;;;;;;;3.60;0.70;;;26.70;64.80;;;;;;10468871;28;20258;-71
2022/05/24 09:07:24;;;;;;;2.70;0.57;;;27.20;59.80;;;;;;10468780;28;20227;-71
2022/05/24 09:12:39;;;;;;;0.50;0.40;;;26.20;59.70;;;;;;10470898;28;20301;-72
2022/05/24 09:17:48;;;;;;;2.27;0.43;;;25.60;62.30;;;;;;10463518;28;20226;-71
2022/05/24 09:22:49;;;;;;;0.63;0.30;;;25.30;60.30;;;;;;10458436;28;20594;-70
2022/05/24 09:27:53;;;;;;;3.27;0.40;;;25.10;62.70;;;;;;10467575;28;20215;-70
2022/05/24 09:33:19;;;;;;;0.40;0.40;;;24.70;62.10;;;;;;10464658;28;20241;-71
2022/05/24 09:38:22;;;;;;;3.40;0.43;;;23.70;67.60;;;;;;10469443;28;20311;-71
2022/05/24 09:43:30;;;;;;;0.43;0.27;;;23.00;68.80;;;;;;10464305;28;20280;-71
2022/05/24 09:48:40;;;;;;;1.50;0.33;;;26.20;64.40;;;;;;10470723;28;20705;-72
2022/05/24 09:53:51;;;;;;;1.23;0.40;;;30.80;50.60;;;;;;10464517;28;20224;-71
2022/05/24 09:58:59;;;;;;;1.90;0.80;;;31.70;47.80;;;;;;10451597;28;20216;-70
2022/05/24 10:04:37;;;;;;;0.67;0.40;;;32.30;43.10;;;;;;10469710;28;20583;-71
2022/05/24 10:09:49;;;;;;;0.47;0.47;;;30.60;45.00;;;;;;10471644;28;20237;-71
2022/05/24 10:14:56;;;;;;;0.73;0.50;;;31.00;45.20;;;;;;10448299;28;20678;-71
2022/05/24 10:20:12;;;;;;;1.47;0.30;;;31.30;43.60;;;;;;10449347;28;20227;-70
2022/05/24 10:25:26;;;;;;;2.00;0.57;;;32.60;41.30;;;;;;10467448;28;20219;-71
2022/05/24 10:30:56;;;;;;;5.83;0.63;;;34.40;37.90;;;;;;10477160;28;20226;-71
2022/05/24 10:42:32;;;;;;;1.47;0.50;;;37.10;31.90;;;;;;10477598;28;20577;-70
2022/05/24 10:48:17;;;;;;;2.50;0.30;;;36.80;30.70;;;;;;10325887;28;20264;-72
2022/05/24 10:53:47;;;;;;;0.87;0.40;;;34.40;33.60;;;;;;10417677;28;20270;-71
2022/05/24 10:58:51;;;;;;;1.87;0.40;;;35.40;33.30;;;;;;10448117;28;20223;-72
2022/05/24 11:03:58;;;;;;;1.00;0.40;;;35.20;33.10;;;;;;10471857;28;20226;-72
2022/05/24 11:09:18;;;;;;;2.43;0.53;;;35.50;32.20;;;;;;10474933;28;20585;-72
2022/05/24 11:14:28;;;;;;;3.43;0.53;;;35.20;30.00;;;;;;10473578;28;20222;-72
2022/05/24 11:19:39;;;;;;;1.70;0.33;;;35.00;31.20;;;;;;10472285;28;20231;-72
2022/05/24 11:24:46;;;;;;;0.70;0.33;;;35.00;30.60;;;;;;10492194;28;20211;-71
2022/05/24 11:29:54;;;;;;;5.20;0.60;;;35.10;31.80;;;;;;10461711;28;20213;-71
2022/05/24 11:35:10;;;;;;;1.50;0.50;;;35.00;30.80;;;;;;10471411;28;20216;-71
2022/05/24 11:40:36;;;;;;;1.47;0.53;;;32.30;34.00;;;;;;10470069;28;20221;-71
2022/05/24 11:45:36;;;;;;;0.93;0.60;;;28.70;39.50;;;;;;10468322;28;20217;-72
2022/05/24 11:50:51;;;;;;;1.50;0.33;;;26.70;44.40;;;;;;10469835;28;20212;-71
2022/05/24 11:55:54;;;;;;;2.63;0.50;;;25.60;46.70;;;;;;10465219;28;20363;-71
2022/05/24 12:01:05;;;;;;;2.67;0.40;;;25.10;48.70;;;;;;10468906;28;20377;-71
2022/05/24 12:11:36;;;;;;;2.23;0.60;;;24.30;50.00;;;;;;10474662;28;20586;-70
2022/05/24 12:16:46;;;;;;;1.60;0.70;;;24.10;49.20;;;;;;10468626;28;20688;-71
2022/05/24 12:21:55;;;;;;;3.60;0.67;;;23.90;49.10;;;;;;10459563;28;20230;-70
2022/05/24 12:27:21;;;;;;;1.97;0.57;;;23.70;49.10;;;;;;10468018;28;20778;-71
2022/05/24 12:32:23;;;;;;;2.07;0.73;;;23.60;49.60;;;;;;10469707;28;20208;-71
2022/05/24 12:37:32;;;;;;;2.43;0.63;;;23.30;49.80;;;;;;10465951;28;20533;-71
2022/05/24 12:42:32;;;;;;;1.40;0.50;;;23.40;50.40;;;;;;10465854;28;20224;-71
2022/05/24 12:47:33;;;;;;;1.03;0.40;;;23.20;51.40;;;;;;10457242;28;20235;-70
2022/05/24 12:52:43;;;;;;;0.60;0.40;;;23.20;51.30;;;;;;10473324;28;20223;-70
2022/05/24 12:57:47;;;;;;;3.00;0.90;;;23.10;51.40;;;;;;10457853;28;20286;-70
2022/05/24 13:02:50;;;;;;;3.27;0.47;;;23.20;51.40;;;;;;10474455;28;20229;-71
2022/05/24 13:07:51;;;;;;;1.43;1.30;;;23.30;50.60;;;;;;10470364;28;20226;-71
2022/05/24 13:13:13;;;;;;;1.87;0.50;;;23.30;50.00;;;;;;10481731;28;20227;-71
2022/05/24 13:18:17;;;;;;;2.13;0.40;;;23.20;49.70;;;;;;10466638;28;20311;-70
2022/05/24 13:23:20;;;;;;;2.70;0.40;;;23.40;50.80;;;;;;10467118;28;20224;-71
2022/05/24 13:28:32;;;;;;;2.03;0.43;;;23.50;50.10;;;;;;10469982;28;20642;-71
2022/05/24 13:33:38;;;;;;;5.50;0.60;;;23.50;50.30;;;;;;10465815;28;20564;-71
2022/05/24 13:38:41;;;;;;;0.67;0.27;;;23.40;50.80;;;;;;10464417;28;20224;-71
2022/05/24 13:43:44;;;;;;;0.70;0.50;;;23.60;49.30;;;;;;10470715;28;20220;-71
2022/05/24 13:48:57;;;;;;;2.53;0.40;;;23.70;49.20;;;;;;10456074;28;20250;-72
2022/05/24 13:54:00;;;;;;;4.40;0.50;;;23.70;47.70;;;;;;10463524;28;20229;-71
2022/05/24 13:59:20;;;;;;;2.77;0.93;;;23.30;46.70;;;;;;10472759;28;20272;-72
2022/05/24 14:04:26;;;;;;;1.17;0.37;;;23.20;48.60;;;;;;10473337;28;20208;-71
2022/05/24 14:09:30;;;;;;;1.87;0.40;;;23.20;48.00;;;;;;10478206;28;20623;-72
2022/05/24 14:14:32;;;;;;;3.40;0.57;;;23.10;48.80;;;;;;10473771;28;20218;-71
2022/05/24 14:19:34;;;;;;;1.97;0.50;;;23.10;49.40;;;;;;10480886;28;20219;-72
2022/05/24 14:24:41;;;;;;;13.27;11.83;;;23.10;49.80;;;;;;10481468;28;20223;-71
2022/05/24 14:29:44;;;;;;;1.73;1.13;;;23.20;50.20;;;;;;10480358;28;20288;-71
2022/05/24 14:34:45;;;;;;;8.73;6.60;;;23.10;50.30;;;;;;10462373;28;20751;-71
2022/05/24 14:39:45;;;;;;;2.27;0.93;;;23.30;50.60;;;;;;10487037;28;20216;-72
2022/05/24 14:44:47;;;;;;;7.10;2.57;;;23.60;50.10;;;;;;10470898;28;20220;-71
2022/05/24 14:49:47;;;;;;;2.20;0.97;;;23.80;49.00;;;;;;10474206;28;20212;-71
2022/05/24 14:54:51;;;;;;;1.63;0.73;;;23.50;50.30;;;;;;10486829;28;20299;-71
2022/05/24 14:59:53;;;;;;;4.53;1.47;;;23.40;51.20;;;;;;10478382;28;20274;-72
2022/05/24 15:04:54;;;;;;;2.33;0.60;;;23.40;50.80;;;;;;10477538;28;20701;-71
2022/05/24 15:15:20;;;;;;;2.00;0.50;;;23.00;50.90;;;;;;10475003;28;20233;-71
2022/05/24 15:20:23;;;;;;;1.20;0.40;;;23.10;50.30;;;;;;10475304;28;20280;-72
2022/05/24 15:25:31;;;;;;;2.23;0.60;;;23.10;49.40;;;;;;10493710;28;20277;-70
2022/05/24 15:30:32;;;;;;;2.60;1.40;;;23.20;48.80;;;;;;10471002;28;20215;-71
2022/05/24 15:35:33;;;;;;;1.23;0.70;;;23.30;49.20;;;;;;10465911;28;20228;-71
2022/05/24 15:40:34;;;;;;;1.33;0.60;;;23.40;49.90;;;;;;10476179;28;20227;-71
2022/05/24 15:45:35;;;;;;;1.23;0.53;;;23.70;49.10;;;;;;10470078;28;20216;-71
2022/05/24 15:50:36;;;;;;;4.43;1.30;;;23.70;48.80;;;;;;10485713;28;20248;-72
2022/05/24 15:55:37;;;;;;;2.10;0.80;;;23.20;49.80;;;;;;10468776;28;20694;-71
2022/05/24 16:00:37;;;;;;;3.77;2.57;;;22.90;50.30;;;;;;10486054;28;20234;-71
2022/05/24 16:11:01;;;;;;;0.97;0.40;;;22.30;50.30;;;;;;10470470;28;20216;-73
2022/05/24 16:16:06;;;;;;;2.60;1.00;;;22.10;50.40;;;;;;10468778;28;20224;-72
2022/05/24 16:21:07;;;;;;;0.60;0.60;;;22.00;50.60;;;;;;10471988;28;20236;-71
2022/05/24 16:26:10;;;;;;;2.33;0.43;;;22.00;50.40;;;;;;10471221;28;20323;-72
2022/05/24 16:31:11;;;;;;;1.00;0.47;;;22.00;49.90;;;;;;10468320;28;20211;-71
2022/05/24 16:36:13;;;;;;;1.00;0.53;;;21.90;50.30;;;;;;10469244;28;20219;-71
2022/05/24 16:41:14;;;;;;;1.07;0.60;;;22.10;50.50;;;;;;10460260;28;20212;-69
2022/05/24 16:46:14;;;;;;;4.07;0.60;;;22.10;50.90;;;;;;10466302;28;20706;-68
2022/05/24 16:51:16;;;;;;;3.10;0.90;;;22.10;52.90;;;;;;10471039;28;20222;-69
2022/05/24 17:01:37;;;;;;;0.40;0.30;;;21.80;52.90;;;;;;10463411;28;20242;-70
2022/05/24 17:06:37;;;;;;;0.40;0.40;;;21.80;53.00;;;;;;10466307;28;20227;-69
2022/05/24 17:11:38;;;;;;;2.17;0.87;;;21.70;53.20;;;;;;10465565;28;20222;-67
2022/05/24 17:16:39;;;;;;;1.43;0.43;;;21.70;53.10;;;;;;10465533;28;20283;-70
2022/05/24 17:21:41;;;;;;;0.97;0.40;;;21.50;53.80;;;;;;10465729;28;20227;-69
2022/05/24 17:26:41;;;;;;;1.23;0.53;;;21.30;54.50;;;;;;10464674;28;20289;-69
2022/05/24 17:31:42;;;;;;;2.40;0.53;;;21.10;54.50;;;;;;10472396;28;20241;-69
2022/05/24 17:36:42;;;;;;;2.90;0.73;;;20.90;54.80;;;;;;10464244;28;20224;-69
2022/05/24 17:41:43;;;;;;;2.47;0.70;;;20.80;55.30;;;;;;10464381;28;20283;-68
2022/05/24 17:46:44;;;;;;;2.27;0.70;;;20.70;55.50;;;;;;10454070;28;20482;-69
2022/05/24 17:51:45;;;;;;;2.20;0.40;;;20.40;56.40;;;;;;10471443;28;20226;-69
2022/05/24 17:56:45;;;;;;;1.23;0.67;;;20.20;57.00;;;;;;10464365;28;20620;-69
2022/05/24 18:01:46;;;;;;;2.00;0.60;;;20.00;57.90;;;;;;10472677;28;20614;-69
2022/05/24 18:06:50;;;;;;;4.27;0.87;;;20.00;58.30;;;;;;10463663;28;20208;-69
2022/05/24 18:11:50;;;;;;;1.83;0.47;;;19.90;58.80;;;;;;10463996;28;20251;-70
2022/05/24 18:16:53;;;;;;;1.27;0.60;;;19.80;59.30;;;;;;10470670;28;20790;-69
2022/05/24 18:21:56;;;;;;;4.17;0.60;;;19.70;59.40;;;;;;10465732;28;20231;-70
2022/05/24 18:37:54;;;;;;;2.03;0.60;;;19.40;61.50;;;;;;10450689;28;20224;-70
2022/05/24 18:42:54;;;;;;;2.63;0.93;;;19.20;62.50;;;;;;10461697;28;20830;-70
2022/05/24 18:47:57;;;;;;;1.03;0.77;;;19.10;63.50;;;;;;10470670;28;20313;-69
2022/05/24 18:52:59;;;;;;;2.70;1.00;;;19.00;64.90;;;;;;10478317;28;20261;-70
2022/05/24 18:57:59;;;;;;;2.47;0.50;;;18.80;66.10;;;;;;10492260;28;20782;-71
2022/05/24 19:03:00;;;;;;;1.87;0.73;;;18.60;66.90;;;;;;10472455;28;20218;-71
2022/05/24 19:08:01;;;;;;;1.97;1.07;;;18.40;67.50;;;;;;10476340;28;20244;-71
2022/05/24 19:13:01;;;;;;;2.27;0.70;;;18.30;68.00;;;;;;10472941;28;20227;-71
2022/05/24 19:18:03;;;;;;;1.90;0.70;;;18.20;68.80;;;;;;10487163;28;20792;-70
2022/05/24 19:23:04;;;;;;;3.33;2.60;;;18.00;69.50;;;;;;10474594;28;20257;-71
2022/05/24 19:28:05;;;;;;;3.80;0.80;;;17.70;68.70;;;;;;10474475;28;20697;-71
2022/05/24 19:33:07;;;;;;;1.97;0.70;;;17.50;68.90;;;;;;10476322;28;20221;-71
2022/05/24 19:38:09;;;;;;;2.63;1.03;;;17.50;69.40;;;;;;10471756;28;20234;-71
2022/05/24 19:43:09;;;;;;;1.67;0.80;;;17.30;70.80;;;;;;10463383;28;20259;-72
2022/05/24 19:48:10;;;;;;;3.53;0.77;;;17.00;72.40;;;;;;10464831;28;20235;-71
2022/05/24 19:53:11;;;;;;;2.07;1.13;;;16.90;73.80;;;;;;10463262;28;20723;-70
2022/05/24 19:58:16;;;;;;;5.57;1.10;;;16.70;75.10;;;;;;10464924;28;20229;-71
2022/05/24 20:03:16;;;;;;;1.73;1.40;;;16.50;77.50;;;;;;10460673;28;20322;-71
2022/05/24 20:08:17;;;;;;;3.97;2.50;;;16.40;79.50;;;;;;10487873;28;20243;-71
2022/05/24 20:13:20;;;;;;;3.63;1.77;;;16.30;80.50;;;;;;10469747;28;20222;-72
2022/05/24 20:18:21;;;;;;;3.43;1.80;;;16.10;82.10;;;;;;10471391;28;20230;-71
2022/05/24 20:23:25;;;;;;;2.27;1.53;;;16.00;83.00;;;;;;10468183;28;20225;-71
2022/05/24 20:28:27;;;;;;;3.00;1.60;;;15.90;83.40;;;;;;10475608;28;20264;-71
2022/05/24 20:33:28;;;;;;;2.57;0.90;;;15.80;85.20;;;;;;10465738;28;20312;-72
2022/05/24 20:38:30;;;;;;;1.63;1.30;;;15.70;86.80;;;;;;10462310;28;20256;-71
2022/05/24 20:43:31;;;;;;;3.87;1.40;;;15.50;88.30;;;;;;10460275;28;20624;-71
2022/05/24 20:48:32;;;;;;;2.43;1.10;;;15.40;89.90;;;;;;10452757;28;20222;-71
2022/05/24 20:53:38;;;;;;;1.67;1.10;;;15.40;91.10;;;;;;10455275;28;20218;-71
2022/05/24 20:58:39;;;;;;;3.10;1.23;;;15.30;92.20;;;;;;10456398;28;20220;-72
2022/05/24 21:03:40;;;;;;;1.83;1.17;;;15.20;94.40;;;;;;10459979;28;20240;-73
2022/05/24 21:08:42;;;;;;;2.30;1.20;;;15.10;96.30;;;;;;10461321;28;20240;-71
2022/05/24 21:13:43;;;;;;;3.10;1.23;;;15.00;98.30;;;;;;10455943;28;20222;-72
2022/05/24 21:18:43;;;;;;;2.67;1.03;;;15.00;99.90;;;;;;10455110;28;20227;-72
2022/05/24 21:23:44;;;;;;;2.17;1.20;;;15.00;99.90;;;;;;10449336;28;20209;-72
2022/05/24 21:28:51;;;;;;;2.93;1.10;;;14.90;99.90;;;;;;10458410;28;20304;-71
2022/05/24 21:33:54;;;;;;;2.70;1.30;;;15.00;99.90;;;;;;10469449;28;20223;-71
2022/05/24 21:38:55;;;;;;;1.23;1.13;;;15.10;99.90;;;;;;10469260;28;20242;-71
2022/05/24 21:43:56;;;;;;;2.27;0.80;;;15.20;99.90;;;;;;10474864;28;20691;-73
2022/05/24 21:48:56;;;;;;;2.00;1.00;;;15.20;99.90;;;;;;10473216;28;20262;-71
2022/05/24 21:53:57;;;;;;;3.13;1.40;;;15.20;99.90;;;;;;10469833;28;20296;-71
2022/05/24 21:58:58;;;;;;;2.00;0.93;;;15.20;99.90;;;;;;10470108;28;20634;-73
2022/05/24 22:04:02;;;;;;;2.53;0.93;;;15.20;99.90;;;;;;10459506;28;20466;-71
2022/05/24 22:09:02;;;;;;;1.93;1.20;;;15.10;99.90;;;;;;10468531;28;20219;-70
2022/05/24 22:14:07;;;;;;;1.57;1.00;;;15.10;99.90;;;;;;10469581;28;20226;-70
2022/05/24 22:19:07;;;;;;;3.03;1.10;;;15.10;99.90;;;;;;10459105;28;20800;-70
2022/05/24 22:24:08;;;;;;;4.57;1.50;;;15.10;99.90;;;;;;10470922;28;20298;-70
2022/05/24 22:29:08;;;;;;;3.07;1.00;;;15.10;99.90;;;;;;10477090;28;20251;-70
2022/05/24 22:34:10;;;;;;;2.67;0.67;;;15.10;99.90;;;;;;10479553;28;20228;-70
2022/05/24 22:39:10;;;;;;;1.70;1.20;;;15.00;99.90;;;;;;10476579;28;20233;-72
2022/05/24 22:44:11;;;;;;;2.27;1.07;;;15.00;99.90;;;;;;10475120;28;20380;-71
2022/05/24 22:49:14;;;;;;;2.13;1.20;;;14.90;99.90;;;;;;10491413;28;20244;-71
2022/05/24 22:54:15;;;;;;;2.80;0.70;;;14.80;99.90;;;;;;10471073;28;20221;-72
2022/05/24 22:59:15;;;;;;;2.57;1.07;;;14.80;99.90;;;;;;10471053;28;20568;-72
2022/05/24 23:04:16;;;;;;;2.10;1.00;;;14.70;99.90;;;;;;10475302;28;20228;-72
2022/05/24 23:09:17;;;;;;;2.87;1.10;;;14.70;99.90;;;;;;10478521;28;20315;-72
2022/05/24 23:14:17;;;;;;;1.33;0.90;;;14.70;99.90;;;;;;10474559;28;20298;-71
2022/05/24 23:19:18;;;;;;;3.67;0.77;;;14.60;99.90;;;;;;10472410;28;20233;-71
2022/05/24 23:24:18;;;;;;;2.60;0.80;;;14.60;99.90;;;;;;10470985;28;20224;-72
2022/05/24 23:29:20;;;;;;;2.83;1.10;;;14.60;99.90;;;;;;10471582;28;20329;-71
2022/05/24 23:34:20;;;;;;;4.63;1.50;;;14.60;99.90;;;;;;10478990;28;20298;-73
2022/05/24 23:39:21;;;;;;;1.67;1.20;;;14.60;99.90;;;;;;10489243;28;20224;-71
2022/05/24 23:44:22;;;;;;;1.63;1.03;;;14.60;99.90;;;;;;10474912;28;20223;-71
2022/05/24 23:49:24;;;;;;;1.77;1.20;;;14.60;99.90;;;;;;10478666;28;20246;-70
2022/05/24 23:54:25;;;;;;;1.20;0.90;;;14.60;99.90;;;;;;10473109;28;20310;-71
2022/05/24 23:59:25;;;;;;;2.00;1.00;;;14.60;99.90;;;;;;10468722;28;20379;-71
